Time;durP1;ratioP1;P1;durP2;ratioP2;P2;SDS_P1;SDS_P2;PMS_P1;PMS_P2;Temp;Humidity;BMP_temperature;BMP_pressure;BME280_temperature;BME280_humidity;BME280_pressure;Samples;Min_cycle;Max_cycle;Signal;HPM_P1;HPM_P2
2023/09/30 00:00:57;;;;;;;8.07;2.85;;;21.50;94.90;;;;;;4870319;29;20737;-62
2023/09/30 00:03:23;;;;;;;8.05;3.45;;;;;;;;;;4887282;29;20056;-65
2023/09/30 00:05:49;;;;;;;8.07;2.85;;;21.40;95.00;;;;;;4881714;29;20064;-63
2023/09/30 00:08:15;;;;;;;7.38;3.13;;;21.50;95.00;;;;;;4888134;29;20044;-63
2023/09/30 00:10:40;;;;;;;7.95;2.83;;;21.40;94.80;;;;;;4885104;29;20048;-63
2023/09/30 00:13:09;;;;;;;9.68;3.35;;;21.30;95.00;;;;;;4886963;29;20052;-63
2023/09/30 00:15:35;;;;;;;8.07;3.17;;;21.40;93.50;;;;;;4883664;29;20150;-63
2023/09/30 00:18:01;;;;;;;6.95;2.80;;;21.50;94.90;;;;;;4897597;29;20115;-62
2023/09/30 00:20:30;;;;;;;8.20;3.17;;;21.40;95.10;;;;;;4887346;29;20471;-66
2023/09/30 00:22:56;;;;;;;8.23;3.28;;;21.30;94.90;;;;;;4860652;29;20504;-65
2023/09/30 00:25:21;;;;;;;9.05;2.65;;;21.40;94.90;;;;;;4899494;29;20048;-66
2023/09/30 00:27:48;;;;;;;8.45;3.08;;;21.40;94.80;;;;;;4884352;29;20075;-65
2023/09/30 00:30:14;;;;;;;7.82;3.00;;;21.30;94.70;;;;;;4878966;29;20542;-67
2023/09/30 00:32:39;;;;;;;6.65;2.90;;;21.30;94.80;;;;;;4882768;29;20076;-66
2023/09/30 00:35:12;;;;;;;9.68;3.05;;;21.40;93.70;;;;;;4898849;29;20055;-66
2023/09/30 00:37:38;;;;;;;7.20;3.00;;;21.50;95.10;;;;;;4868634;29;20055;-66
2023/09/30 00:40:05;;;;;;;7.70;3.20;;;21.40;94.60;;;;;;4890022;29;20065;-62
2023/09/30 00:42:31;;;;;;;7.75;2.72;;;21.40;94.70;;;;;;4875131;29;20498;-66
2023/09/30 00:44:57;;;;;;;7.15;2.92;;;21.40;93.60;;;;;;4887776;29;20101;-65
2023/09/30 00:47:23;;;;;;;7.53;2.72;;;21.30;93.60;;;;;;4852774;29;20051;-66
2023/09/30 00:49:50;;;;;;;6.63;2.88;;;21.30;93.60;;;;;;4899522;29;20063;-63
2023/09/30 00:52:16;;;;;;;8.60;3.10;;;21.20;94.60;;;;;;4895537;29;21063;-63
2023/09/30 00:54:43;;;;;;;6.72;2.83;;;21.20;93.70;;;;;;4885845;29;20057;-63
2023/09/30 00:57:09;;;;;;;7.05;2.70;;;21.30;94.60;;;;;;4847854;29;20063;-63
2023/09/30 00:59:35;;;;;;;7.30;2.78;;;21.30;93.60;;;;;;4855843;29;20052;-63
2023/09/30 01:02:01;;;;;;;6.63;2.80;;;21.30;93.60;;;;;;4851427;29;20515;-63
2023/09/30 01:04:27;;;;;;;9.10;3.03;;;21.30;94.60;;;;;;4888921;29;20037;-62
2023/09/30 01:06:53;;;;;;;7.75;2.97;;;21.20;93.50;;;;;;4862759;29;20136;-63
2023/09/30 01:09:20;;;;;;;7.82;2.80;;;21.20;94.80;;;;;;4863139;29;20053;-62
2023/09/30 01:11:45;;;;;;;7.05;2.75;;;21.00;94.50;;;;;;4878091;29;20391;-63
2023/09/30 01:14:27;;;;;;;8.65;3.00;;;21.20;94.50;;;;;;4891513;29;20115;-63
2023/09/30 01:16:53;;;;;;;10.27;3.15;;;21.00;94.40;;;;;;4896220;29;20075;-64
2023/09/30 01:19:19;;;;;;;9.00;2.58;;;21.00;93.50;;;;;;4883203;29;20113;-63
2023/09/30 01:21:48;;;;;;;6.90;2.83;;;21.30;94.50;;;;;;4873265;29;20403;-63
2023/09/30 01:24:15;;;;;;;6.45;2.70;;;21.30;94.50;;;;;;4875585;29;20084;-63
2023/09/30 01:26:42;;;;;;;6.03;2.65;;;21.10;93.50;;;;;;4879270;29;20098;-63
2023/09/30 01:29:10;;;;;;;7.32;2.90;;;21.20;94.40;;;;;;4880264;29;20095;-62
2023/09/30 01:31:39;;;;;;;7.13;2.58;;;20.90;94.40;;;;;;4862662;29;20411;-63
2023/09/30 01:34:05;;;;;;;8.32;2.72;;;21.10;94.40;;;;;;4881597;29;20132;-63
2023/09/30 01:36:31;;;;;;;6.28;2.65;;;21.20;94.40;;;;;;4869259;29;20140;-63
2023/09/30 01:38:57;;;;;;;7.32;2.50;;;21.30;94.90;;;;;;4867080;29;20048;-65
2023/09/30 01:41:23;;;;;;;8.10;2.83;;;21.10;94.30;;;;;;4894049;29;20104;-65
2023/09/30 01:43:49;;;;;;;7.05;2.70;;;21.20;94.40;;;;;;4884087;29;20043;-66
2023/09/30 01:46:15;;;;;;;8.02;2.80;;;21.00;94.30;;;;;;4889847;29;20040;-66
2023/09/30 01:48:41;;;;;;;6.88;2.63;;;21.40;94.80;;;;;;4880463;29;20462;-65
2023/09/30 01:51:07;;;;;;;7.38;2.50;;;21.20;94.40;;;;;;4895462;29;20112;-65
2023/09/30 01:53:33;;;;;;;8.32;2.55;;;21.20;93.20;;;;;;4844565;29;20058;-65
2023/09/30 01:55:59;;;;;;;6.90;2.42;;;21.10;94.30;;;;;;4846042;29;20128;-66
2023/09/30 01:58:25;;;;;;;6.38;2.50;;;21.00;93.40;;;;;;4853592;29;20049;-65
2023/09/30 02:00:52;;;;;;;9.20;2.70;;;21.10;94.30;;;;;;4891136;29;20394;-63
2023/09/30 02:03:18;;;;;;;7.20;2.85;;;21.40;93.40;;;;;;4874168;29;20100;-65
2023/09/30 02:05:43;;;;;;;6.72;2.53;;;21.10;94.30;;;;;;4859978;29;20061;-65
2023/09/30 02:08:09;;;;;;;7.68;2.38;;;21.20;94.30;;;;;;4888081;29;20056;-68
2023/09/30 02:10:35;;;;;;;9.15;2.92;;;21.10;93.20;;;;;;4877817;29;20085;-65
2023/09/30 02:13:01;;;;;;;6.47;2.85;;;21.10;94.20;;;;;;4871180;29;20049;-65
2023/09/30 02:15:27;;;;;;;6.93;2.72;;;21.00;94.60;;;;;;4886703;29;20129;-65
2023/09/30 02:17:53;;;;;;;7.45;2.67;;;20.90;93.30;;;;;;4894648;29;20132;-65
2023/09/30 02:20:21;;;;;;;6.32;2.70;;;21.00;94.30;;;;;;4891412;29;20056;-66
2023/09/30 02:22:48;;;;;;;6.70;2.42;;;21.10;94.60;;;;;;4880195;29;20052;-65
2023/09/30 02:25:14;;;;;;;6.32;2.47;;;21.10;94.20;;;;;;4893611;29;20052;-66
2023/09/30 02:27:41;;;;;;;6.75;2.40;;;21.10;94.30;;;;;;4878013;29;20512;-67
2023/09/30 02:30:09;;;;;;;9.23;2.83;;;21.10;93.20;;;;;;4860951;29;20053;-67
2023/09/30 02:32:37;;;;;;;7.43;2.50;;;21.10;94.40;;;;;;4848049;29;20060;-66
2023/09/30 02:35:04;;;;;;;6.15;2.33;;;21.10;94.20;;;;;;4888482;29;20052;-65
2023/09/30 02:37:35;;;;;;;5.72;2.40;;;21.20;94.20;;;;;;4890380;29;20498;-68
2023/09/30 02:40:06;;;;;;;7.10;2.45;;;21.10;94.10;;;;;;4896947;29;20392;-66
2023/09/30 02:42:32;;;;;;;6.13;2.30;;;21.00;94.10;;;;;;4894212;29;20040;-66
2023/09/30 02:45:01;;;;;;;7.13;2.42;;;21.10;94.10;;;;;;4881730;29;20502;-67
2023/09/30 02:47:26;;;;;;;7.63;2.30;;;21.30;94.50;;;;;;4868802;29;20044;-67
2023/09/30 02:49:52;;;;;;;7.57;2.70;;;21.00;93.10;;;;;;4895743;29;20509;-65
2023/09/30 02:52:18;;;;;;;6.43;2.25;;;21.10;94.10;;;;;;4896370;29;20057;-66
2023/09/30 02:54:44;;;;;;;5.22;2.38;;;21.00;94.00;;;;;;4885671;29;20498;-67
2023/09/30 02:57:09;;;;;;;8.13;2.60;;;21.00;94.00;;;;;;4892465;29;20406;-66
2023/09/30 02:59:36;;;;;;;6.28;2.45;;;21.00;93.00;;;;;;4880805;29;20455;-66
2023/09/30 03:02:03;;;;;;;7.95;2.35;;;21.00;94.00;;;;;;4877697;29;20052;-63
2023/09/30 03:04:28;;;;;;;6.82;2.45;;;20.80;94.40;;;;;;4869264;29;20406;-66
2023/09/30 03:06:56;;;;;;;6.63;2.25;;;21.00;94.00;;;;;;4880756;29;20041;-66
2023/09/30 03:09:22;;;;;;;7.80;2.78;;;21.00;94.00;;;;;;4876187;29;20581;-66
2023/09/30 03:11:48;;;;;;;5.72;2.28;;;21.00;94.00;;;;;;4878864;29;20049;-65
2023/09/30 03:14:14;;;;;;;8.05;2.63;;;21.00;94.10;;;;;;4879502;29;20044;-67
2023/09/30 03:16:41;;;;;;;5.50;2.38;;;20.80;94.00;;;;;;4893030;29;20504;-66
2023/09/30 03:19:08;;;;;;;6.43;2.47;;;21.00;92.60;;;;;;4887688;29;20704;-66
2023/09/30 03:21:35;;;;;;;6.25;2.50;;;20.90;93.90;;;;;;4889229;29;20048;-66
2023/09/30 03:24:02;;;;;;;7.47;2.30;;;21.00;94.00;;;;;;4893389;29;20084;-66
2023/09/30 03:26:31;;;;;;;8.45;2.50;;;21.00;93.90;;;;;;4861013;29;20053;-66
2023/09/30 03:28:57;;;;;;;5.25;2.05;;;21.10;93.00;;;;;;4879437;29;20440;-66
2023/09/30 03:31:23;;;;;;;7.47;2.55;;;21.00;93.90;;;;;;4880537;29;20091;-66
2023/09/30 03:33:51;;;;;;;6.57;2.42;;;20.90;93.90;;;;;;4879436;29;20076;-67
2023/09/30 03:36:18;;;;;;;7.32;2.47;;;20.90;92.90;;;;;;4876528;29;20116;-65
2023/09/30 03:38:44;;;;;;;6.95;2.70;;;21.10;94.30;;;;;;4882336;29;20049;-64
2023/09/30 03:41:12;;;;;;;5.75;2.00;;;21.00;93.90;;;;;;4864254;29;20140;-63
2023/09/30 03:43:41;;;;;;;8.73;3.00;;;21.10;94.00;;;;;;4876734;29;20052;-63
2023/09/30 03:46:07;;;;;;;6.80;2.70;;;20.70;92.60;;;;;;4893810;29;20767;-64
2023/09/30 03:48:39;;;;;;;5.85;2.33;;;20.80;93.90;;;;;;4892677;29;20057;-64
2023/09/30 03:51:25;;;;;;;6.50;2.85;;;21.20;93.00;;;;;;4878460;29;20056;-63
2023/09/30 03:53:50;;;;;;;6.07;2.42;;;20.90;92.60;;;;;;4860099;29;20053;-64
2023/09/30 03:56:18;;;;;;;6.40;2.22;;;20.90;93.80;;;;;;4861695;29;20407;-64
2023/09/30 03:58:44;;;;;;;6.50;2.42;;;21.00;93.90;;;;;;4873179;29;20563;-62
2023/09/30 04:01:13;;;;;;;7.32;2.38;;;21.00;93.90;;;;;;4876743;29;20059;-64
2023/09/30 04:03:39;;;;;;;6.63;2.30;;;20.90;92.60;;;;;;4878611;29;20116;-63
2023/09/30 04:06:06;;;;;;;8.02;2.75;;;20.90;92.80;;;;;;4898239;29;20406;-64
2023/09/30 04:08:33;;;;;;;6.57;2.38;;;20.80;93.80;;;;;;4874196;29;20060;-64
2023/09/30 04:11:05;;;;;;;7.18;2.45;;;20.90;93.80;;;;;;4864155;29;20050;-64
2023/09/30 04:13:32;;;;;;;8.35;2.80;;;20.90;93.80;;;;;;4893494;29;20100;-63
2023/09/30 04:15:58;;;;;;;6.68;2.50;;;21.10;92.80;;;;;;4881477;29;20060;-63
2023/09/30 04:18:27;;;;;;;6.50;2.45;;;20.80;93.70;;;;;;4899250;29;20395;-63
2023/09/30 04:20:53;;;;;;;6.22;2.30;;;20.80;93.80;;;;;;4885159;29;20537;-63
2023/09/30 04:23:22;;;;;;;6.47;2.35;;;20.90;93.80;;;;;;4878387;29;20125;-63
2023/09/30 04:25:47;;;;;;;8.63;2.70;;;20.90;93.70;;;;;;4873240;29;20053;-63
2023/09/30 04:28:14;;;;;;;5.10;2.20;;;;;;;;;;4884305;29;20137;-62
2023/09/30 04:30:40;;;;;;;7.13;2.47;;;20.80;93.80;;;;;;4900269;29;20406;-64
2023/09/30 04:33:07;;;;;;;6.07;2.35;;;20.90;93.80;;;;;;4891148;29;20100;-63
2023/09/30 04:35:35;;;;;;;8.00;2.83;;;20.90;93.70;;;;;;4890834;29;20060;-64
2023/09/30 04:38:01;;;;;;;8.05;2.60;;;20.90;93.70;;;;;;4895128;29;20045;-63
2023/09/30 04:40:27;;;;;;;6.78;2.58;;;20.90;93.70;;;;;;4899806;29;20055;-63
2023/09/30 04:42:58;;;;;;;6.93;2.53;;;20.90;93.80;;;;;;4890797;29;20045;-63
2023/09/30 04:45:25;;;;;;;6.05;2.40;;;20.70;93.70;;;;;;4861102;29;20399;-63
2023/09/30 04:47:52;;;;;;;7.18;2.58;;;20.80;93.70;;;;;;4872236;29;20048;-63
2023/09/30 04:50:21;;;;;;;6.18;2.25;;;21.20;92.90;;;;;;4881604;29;20127;-63
2023/09/30 04:52:51;;;;;;;6.78;2.65;;;20.80;92.70;;;;;;4862489;29;20121;-64
2023/09/30 04:55:18;;;;;;;6.05;2.47;;;20.70;93.70;;;;;;4871058;29;20053;-64
2023/09/30 04:57:45;;;;;;;6.78;2.60;;;20.90;93.80;;;;;;4875424;29;20060;-63
2023/09/30 05:00:13;;;;;;;7.55;2.80;;;20.80;93.60;;;;;;4868157;29;20052;-64
2023/09/30 05:02:39;;;;;;;8.50;2.75;;;20.90;93.70;;;;;;4878821;29;20514;-63
2023/09/30 05:05:06;;;;;;;7.82;2.80;;;20.90;93.70;;;;;;4864961;29;20037;-64
2023/09/30 05:07:32;;;;;;;6.35;2.33;;;20.90;93.70;;;;;;4864811;29;20051;-64
2023/09/30 05:09:59;;;;;;;8.70;2.80;;;20.80;93.70;;;;;;4879301;29;20511;-64
2023/09/30 05:12:25;;;;;;;6.35;2.67;;;20.80;93.70;;;;;;4878307;29;20043;-62
2023/09/30 05:14:52;;;;;;;6.38;2.47;;;20.90;93.70;;;;;;4864618;29;20405;-63
2023/09/30 05:17:18;;;;;;;6.85;2.83;;;;;;;;;;4861090;29;20042;-63
2023/09/30 05:19:44;;;;;;;6.07;2.50;;;;;;;;;;4873635;29;20084;-63
2023/09/30 05:22:10;;;;;;;5.90;2.50;;;20.90;92.20;;;;;;4877600;29;20045;-64
2023/09/30 05:24:36;;;;;;;6.18;2.17;;;20.80;93.60;;;;;;4868810;29;20059;-66
2023/09/30 05:27:02;;;;;;;8.63;2.40;;;20.80;93.70;;;;;;4869767;29;20072;-63
2023/09/30 05:29:28;;;;;;;6.82;2.28;;;20.80;93.80;;;;;;4868030;29;20080;-63
2023/09/30 05:31:54;;;;;;;7.25;2.85;;;20.70;93.70;;;;;;4870219;29;20380;-62
2023/09/30 05:34:20;;;;;;;6.18;2.78;;;20.80;93.70;;;;;;4868081;29;20071;-63
2023/09/30 05:36:46;;;;;;;6.53;2.78;;;20.70;93.60;;;;;;4853589;29;20053;-64
2023/09/30 05:39:11;;;;;;;6.55;2.50;;;20.80;93.70;;;;;;4867765;29;20471;-64
2023/09/30 05:41:38;;;;;;;5.53;2.42;;;20.90;92.60;;;;;;4875136;29;20132;-63
2023/09/30 05:44:04;;;;;;;7.05;2.70;;;20.80;93.70;;;;;;4878767;29;20406;-62
2023/09/30 05:46:33;;;;;;;6.68;2.67;;;20.80;93.60;;;;;;4863747;29;20130;-63
2023/09/30 05:48:59;;;;;;;9.73;2.95;;;20.80;93.60;;;;;;4859540;29;20128;-63
2023/09/30 05:51:25;;;;;;;5.75;2.35;;;20.70;93.60;;;;;;4868956;29;20145;-62
2023/09/30 05:53:50;;;;;;;8.23;2.92;;;20.70;93.80;;;;;;4892863;29;20084;-63
2023/09/30 05:56:18;;;;;;;6.32;2.38;;;20.80;93.60;;;;;;4880053;29;20412;-63
2023/09/30 05:58:43;;;;;;;6.40;2.83;;;20.80;93.30;;;;;;4892122;29;20059;-62
2023/09/30 06:01:12;;;;;;;4.72;2.47;;;20.80;93.60;;;;;;4890070;29;20056;-63
2023/09/30 06:03:41;;;;;;;6.57;2.50;;;20.60;92.60;;;;;;4896585;29;20144;-63
2023/09/30 06:06:15;;;;;;;6.60;2.40;;;20.80;92.10;;;;;;4891005;29;20447;-63
2023/09/30 06:08:43;;;;;;;6.18;2.42;;;20.80;93.50;;;;;;4886984;29;20053;-64
2023/09/30 06:11:19;;;;;;;6.78;2.42;;;20.80;92.40;;;;;;4868117;29;20459;-62
2023/09/30 06:13:48;;;;;;;5.78;2.35;;;21.00;92.40;;;;;;4881134;29;20371;-62
2023/09/30 06:16:14;;;;;;;5.82;2.70;;;;;;;;;;4860634;29;20510;-63
2023/09/30 06:18:40;;;;;;;6.50;2.60;;;20.80;93.40;;;;;;4890410;29;20394;-62
2023/09/30 06:21:34;;;;;;;5.95;2.33;;;20.80;93.40;;;;;;4878568;29;20058;-63
2023/09/30 06:24:04;;;;;;;8.18;2.97;;;20.90;93.40;;;;;;4864198;29;20113;-62
2023/09/30 06:26:30;;;;;;;6.60;2.95;;;20.90;93.40;;;;;;4862595;29;20083;-64
2023/09/30 06:28:56;;;;;;;7.25;2.60;;;21.00;93.40;;;;;;4893311;29;20132;-64
2023/09/30 06:31:24;;;;;;;5.60;2.30;;;20.90;93.40;;;;;;4863203;29;20048;-63
2023/09/30 06:33:50;;;;;;;6.65;2.75;;;20.90;93.30;;;;;;4891358;29;20068;-63
2023/09/30 06:36:16;;;;;;;6.45;2.53;;;20.90;93.40;;;;;;4887147;29;20088;-62
2023/09/30 06:38:43;;;;;;;7.22;2.40;;;20.90;93.30;;;;;;4869947;29;20056;-63
2023/09/30 06:41:15;;;;;;;7.50;2.47;;;21.00;93.30;;;;;;4848619;29;20056;-63
2023/09/30 06:43:42;;;;;;;7.38;2.80;;;21.10;92.20;;;;;;4866771;29;20120;-63
2023/09/30 06:46:12;;;;;;;7.32;2.92;;;21.00;93.20;;;;;;4858452;29;20105;-63
2023/09/30 06:48:40;;;;;;;6.13;2.50;;;21.20;93.30;;;;;;4870137;29;20064;-64
2023/09/30 06:51:06;;;;;;;6.03;2.67;;;21.30;93.30;;;;;;4880426;29;20057;-65
2023/09/30 06:53:33;;;;;;;7.65;3.20;;;21.30;92.00;;;;;;4892024;29;20045;-65
2023/09/30 06:55:59;;;;;;;6.38;2.63;;;21.20;93.40;;;;;;4880814;29;20135;-64
2023/09/30 06:58:24;;;;;;;5.85;2.40;;;21.30;93.40;;;;;;4874045;29;20237;-65
2023/09/30 07:00:51;;;;;;;7.70;2.75;;;21.40;93.20;;;;;;4862637;29;20048;-63
2023/09/30 07:03:19;;;;;;;6.07;2.40;;;21.40;93.10;;;;;;4885684;29;20060;-63
2023/09/30 07:05:45;;;;;;;6.57;2.75;;;21.60;93.40;;;;;;4891540;29;20432;-65
2023/09/30 07:08:11;;;;;;;6.55;2.60;;;21.10;91.90;;;;;;4868722;29;20060;-63
2023/09/30 07:10:37;;;;;;;7.18;2.67;;;21.50;92.70;;;;;;4861390;29;20051;-63
2023/09/30 07:13:08;;;;;;;5.68;2.45;;;21.70;91.90;;;;;;4894028;29;20048;-62
2023/09/30 07:15:34;;;;;;;6.93;2.67;;;21.60;92.90;;;;;;4891566;29;20048;-62
2023/09/30 07:18:00;;;;;;;6.10;2.63;;;21.70;93.30;;;;;;4867687;29;20057;-63
2023/09/30 07:20:26;;;;;;;6.75;2.55;;;21.70;92.80;;;;;;4857980;29;20140;-64
2023/09/30 07:22:52;;;;;;;7.85;3.15;;;21.70;92.80;;;;;;4896203;29;20040;-62
2023/09/30 07:25:18;;;;;;;7.60;3.25;;;21.80;93.00;;;;;;4874809;29;20047;-62
2023/09/30 07:27:45;;;;;;;6.40;3.00;;;21.70;92.60;;;;;;4872895;29;20053;-62
2023/09/30 07:30:12;;;;;;;7.90;3.20;;;21.90;92.90;;;;;;4878341;29;20060;-63
2023/09/30 07:32:38;;;;;;;7.72;2.90;;;21.90;91.40;;;;;;4866173;29;20045;-63
2023/09/30 07:35:04;;;;;;;8.25;3.22;;;21.90;92.50;;;;;;4883286;29;20132;-67
2023/09/30 07:37:30;;;;;;;7.32;2.63;;;21.90;92.50;;;;;;4868454;29;20051;-64
2023/09/30 07:39:56;;;;;;;9.35;3.10;;;22.20;92.80;;;;;;4885730;29;20056;-64
2023/09/30 07:42:22;;;;;;;9.15;3.03;;;22.00;91.70;;;;;;4898417;29;20036;-64
2023/09/30 07:44:49;;;;;;;8.27;3.45;;;22.10;91.50;;;;;;4879900;29;20083;-64
2023/09/30 07:47:15;;;;;;;8.68;3.22;;;22.20;91.40;;;;;;4891738;29;20435;-67
2023/09/30 07:49:41;;;;;;;9.23;3.47;;;22.20;91.20;;;;;;4892490;29;20100;-64
2023/09/30 07:52:07;;;;;;;13.98;3.95;;;22.40;91.20;;;;;;4846289;29;20057;-65
2023/09/30 07:54:33;;;;;;;8.77;3.38;;;22.40;91.00;;;;;;4860270;29;20068;-65
2023/09/30 07:56:59;;;;;;;7.72;3.05;;;22.20;91.00;;;;;;4841839;29;20495;-65
2023/09/30 07:59:25;;;;;;;9.60;3.60;;;22.30;91.90;;;;;;4878479;29;20399;-65
2023/09/30 08:01:52;;;;;;;9.93;3.78;;;22.50;91.90;;;;;;4862371;29;20393;-65
2023/09/30 08:04:18;;;;;;;9.43;3.50;;;22.40;91.00;;;;;;4844877;29;20057;-64
2023/09/30 08:06:44;;;;;;;8.57;3.35;;;22.50;91.90;;;;;;4860986;29;20140;-64
2023/09/30 08:09:13;;;;;;;13.63;3.72;;;22.50;90.70;;;;;;4860604;29;20143;-65
2023/09/30 08:11:38;;;;;;;9.50;3.88;;;22.50;91.70;;;;;;4875738;29;20411;-69
2023/09/30 08:14:06;;;;;;;9.82;3.88;;;22.90;90.70;;;;;;4862935;29;20048;-65
2023/09/30 08:16:38;;;;;;;9.40;3.40;;;22.70;91.60;;;;;;4866163;29;20057;-65
2023/09/30 08:19:05;;;;;;;9.95;3.55;;;22.70;90.50;;;;;;4874907;29;20136;-64
2023/09/30 08:21:30;;;;;;;11.00;3.85;;;22.60;90.50;;;;;;4881363;29;20380;-65
2023/09/30 08:23:57;;;;;;;8.60;3.65;;;22.70;91.40;;;;;;4875192;29;20058;-64
2023/09/30 08:26:23;;;;;;;11.25;3.78;;;22.40;90.40;;;;;;4851140;29;20407;-66
2023/09/30 08:28:49;;;;;;;9.18;3.60;;;22.70;91.40;;;;;;4873551;29;20042;-65
2023/09/30 08:31:14;;;;;;;11.18;3.67;;;22.90;90.40;;;;;;4870542;29;20056;-66
2023/09/30 08:33:43;;;;;;;8.98;3.55;;;22.60;90.30;;;;;;4876938;29;20048;-65
2023/09/30 08:36:10;;;;;;;8.65;3.22;;;22.80;91.40;;;;;;4876189;29;20042;-65
2023/09/30 08:38:36;;;;;;;10.02;3.35;;;23.00;90.40;;;;;;4859670;29;20045;-65
2023/09/30 08:41:02;;;;;;;7.75;3.38;;;22.80;91.20;;;;;;4871681;29;20054;-66
2023/09/30 08:43:30;;;;;;;8.45;3.30;;;22.80;91.30;;;;;;4869951;29;20496;-65
2023/09/30 08:45:56;;;;;;;11.55;3.60;;;22.70;90.20;;;;;;4876745;29;20492;-64
2023/09/30 08:48:27;;;;;;;7.10;2.83;;;22.90;90.10;;;;;;4863303;29;20395;-65
2023/09/30 08:50:54;;;;;;;8.48;3.08;;;22.90;90.10;;;;;;4876493;29;20057;-65
2023/09/30 08:53:21;;;;;;;7.60;3.08;;;22.90;91.40;;;;;;4890911;29;20055;-65
2023/09/30 08:55:47;;;;;;;8.63;3.40;;;22.80;90.00;;;;;;4863199;29;20052;-65
2023/09/30 08:58:13;;;;;;;7.80;2.85;;;23.10;90.10;;;;;;4880739;29;20140;-64
2023/09/30 09:00:39;;;;;;;6.85;2.90;;;22.90;90.00;;;;;;4878979;29;20503;-65
2023/09/30 09:03:07;;;;;;;7.78;3.25;;;23.00;91.40;;;;;;4896541;29;20116;-64
2023/09/30 09:05:33;;;;;;;9.27;3.50;;;22.90;90.10;;;;;;4880051;29;20120;-63
2023/09/30 09:07:59;;;;;;;9.13;3.13;;;23.10;90.00;;;;;;4887188;29;20458;-64
2023/09/30 09:10:24;;;;;;;8.13;3.40;;;23.20;91.20;;;;;;4874764;29;20132;-63
2023/09/30 09:12:57;;;;;;;9.90;3.25;;;22.80;91.10;;;;;;4874145;29;20144;-63
2023/09/30 09:15:25;;;;;;;7.25;3.20;;;22.80;90.10;;;;;;4873827;29;20060;-65
2023/09/30 09:17:51;;;;;;;8.15;2.85;;;23.00;91.30;;;;;;4889663;29;20109;-65
2023/09/30 09:20:22;;;;;;;9.65;3.03;;;23.00;89.90;;;;;;4877703;29;20139;-63
2023/09/30 09:22:54;;;;;;;8.90;2.88;;;22.90;90.90;;;;;;4879356;29;20479;-63
2023/09/30 09:25:23;;;;;;;8.88;3.53;;;23.10;90.10;;;;;;4878618;29;20131;-63
2023/09/30 09:27:49;;;;;;;10.35;3.20;;;23.30;91.40;;;;;;4884219;29;20033;-62
2023/09/30 09:30:25;;;;;;;8.90;2.92;;;22.90;89.90;;;;;;4862236;29;20123;-65
2023/09/30 09:33:11;;;;;;;9.38;2.80;;;22.90;88.70;;;;;;4878188;29;20083;-64
2023/09/30 09:35:37;;;;;;;11.32;3.40;;;22.80;90.00;;;;;;4897654;29;20051;-64
2023/09/30 09:38:04;;;;;;;7.90;3.03;;;23.00;89.80;;;;;;4874244;29;20056;-64
2023/09/30 09:40:33;;;;;;;10.13;3.05;;;23.00;90.10;;;;;;4897244;29;20049;-65
2023/09/30 09:43:02;;;;;;;10.93;3.08;;;22.90;90.10;;;;;;4887550;29;20060;-64
2023/09/30 09:45:28;;;;;;;8.38;3.17;;;23.10;90.00;;;;;;4896329;29;20052;-63
2023/09/30 09:47:54;;;;;;;10.07;3.40;;;22.80;89.80;;;;;;4876828;29;20052;-63
2023/09/30 09:50:21;;;;;;;8.60;3.20;;;22.80;89.80;;;;;;4869428;29;20180;-64
2023/09/30 09:52:51;;;;;;;9.32;3.17;;;22.80;90.00;;;;;;4879516;29;20059;-63
2023/09/30 09:55:27;;;;;;;9.88;3.10;;;23.20;91.30;;;;;;4879586;29;20137;-64
2023/09/30 09:57:53;;;;;;;9.70;2.92;;;22.80;90.00;;;;;;4880074;29;20170;-64
2023/09/30 10:00:21;;;;;;;7.50;2.53;;;23.00;91.40;;;;;;4898514;29;20055;-64
2023/09/30 10:02:47;;;;;;;9.23;2.75;;;23.20;90.10;;;;;;4886082;29;20044;-64
2023/09/30 10:05:14;;;;;;;8.27;2.70;;;23.00;89.20;;;;;;4898259;29;20061;-64
2023/09/30 10:08:01;;;;;;;7.85;2.53;;;23.00;90.00;;;;;;4861821;29;20116;-65
2023/09/30 10:10:28;;;;;;;9.63;3.10;;;23.10;90.00;;;;;;4882005;29;20055;-63
2023/09/30 10:12:54;;;;;;;7.95;2.72;;;23.20;89.90;;;;;;4860370;29;20057;-64
2023/09/30 10:15:26;;;;;;;9.13;2.88;;;23.20;91.00;;;;;;4879118;29;20124;-65
2023/09/30 10:18:06;;;;;;;8.88;2.45;;;23.10;89.80;;;;;;4871078;29;20419;-64
2023/09/30 10:20:36;;;;;;;10.65;3.30;;;23.00;88.50;;;;;;4886959;29;20056;-66
2023/09/30 10:23:17;;;;;;;16.83;3.40;;;23.10;89.90;;;;;;4883135;29;20185;-65
2023/09/30 10:25:47;;;;;;;25.80;3.90;;;22.90;89.40;;;;;;4892533;29;20490;-65
2023/09/30 10:28:32;;;;;;;15.65;2.85;;;23.00;89.70;;;;;;4896615;29;20055;-65
2023/09/30 10:31:15;;;;;;;11.48;3.15;;;23.10;90.00;;;;;;4891766;29;20059;-66
2023/09/30 10:34:11;;;;;;;15.77;2.92;;;23.10;89.90;;;;;;4867657;29;20052;-65
2023/09/30 10:36:39;;;;;;;9.18;2.70;;;23.10;89.50;;;;;;4876930;29;20147;-64
2023/09/30 10:39:08;;;;;;;12.20;2.85;;;23.30;89.80;;;;;;4894580;29;20063;-66
2023/09/30 10:41:40;;;;;;;10.90;2.88;;;23.20;91.10;;;;;;4866411;29;20117;-70
2023/09/30 10:44:25;;;;;;;10.13;2.25;;;23.30;89.60;;;;;;4871169;29;20501;-64
2023/09/30 10:46:52;;;;;;;9.50;2.63;;;23.30;89.90;;;;;;4880146;29;20572;-65
2023/09/30 10:49:24;;;;;;;8.88;2.67;;;23.20;89.70;;;;;;4894456;29;20056;-64
2023/09/30 10:51:54;;;;;;;9.32;2.40;;;23.30;90.40;;;;;;4894638;29;20411;-64
2023/09/30 10:54:27;;;;;;;8.73;2.53;;;23.30;91.20;;;;;;4887006;29;20049;-65
2023/09/30 10:56:53;;;;;;;9.48;2.83;;;23.40;90.00;;;;;;4885520;29;20117;-66
2023/09/30 10:59:20;;;;;;;8.30;2.40;;;23.30;89.70;;;;;;4870037;29;20061;-65
2023/09/30 11:01:46;;;;;;;5.78;2.20;;;23.60;90.00;;;;;;4874961;29;20052;-64
2023/09/30 11:04:11;;;;;;;8.35;2.45;;;23.20;89.50;;;;;;4888020;29;20101;-65
2023/09/30 11:06:40;;;;;;;8.52;2.30;;;23.50;89.40;;;;;;4867023;29;20053;-65
2023/09/30 11:09:12;;;;;;;6.57;2.28;;;23.40;89.50;;;;;;4884365;29;20049;-65
2023/09/30 11:11:39;;;;;;;8.38;2.45;;;23.60;89.50;;;;;;4877274;29;20084;-65
2023/09/30 11:14:30;;;;;;;8.60;2.42;;;23.50;89.30;;;;;;4878352;29;20052;-65
2023/09/30 11:16:59;;;;;;;9.48;2.20;;;23.70;88.30;;;;;;4880605;29;20049;-65
2023/09/30 11:19:25;;;;;;;6.95;2.10;;;23.50;89.40;;;;;;4886018;29;20132;-64
2023/09/30 11:21:52;;;;;;;8.60;2.53;;;23.70;89.00;;;;;;4886294;29;20456;-65
2023/09/30 11:24:19;;;;;;;7.00;2.60;;;23.70;89.00;;;;;;4872673;29;20538;-66
2023/09/30 11:26:45;;;;;;;5.25;2.17;;;23.60;88.60;;;;;;4879291;29;20172;-65
2023/09/30 11:29:18;;;;;;;8.38;2.35;;;23.70;88.70;;;;;;4892574;29;20095;-65
2023/09/30 11:31:46;;;;;;;5.75;2.20;;;23.90;89.00;;;;;;4873955;29;20061;-66
2023/09/30 11:34:12;;;;;;;7.10;2.05;;;24.20;88.80;;;;;;4884101;29;20124;-66
2023/09/30 11:36:42;;;;;;;8.52;2.05;;;23.80;88.60;;;;;;4874714;29;20052;-66
2023/09/30 11:39:09;;;;;;;7.80;2.85;;;23.90;88.40;;;;;;4848945;29;20049;-66
2023/09/30 11:41:43;;;;;;;6.18;2.08;;;24.00;88.80;;;;;;4884844;29;20166;-66
2023/09/30 11:44:11;;;;;;;8.57;2.45;;;24.00;88.00;;;;;;4859556;29;20049;-67
2023/09/30 11:46:52;;;;;;;7.47;2.50;;;24.40;87.90;;;;;;4875570;29;20071;-65
2023/09/30 11:49:49;;;;;;;8.27;2.20;;;24.10;87.20;;;;;;4873467;29;20047;-65
2023/09/30 11:52:16;;;;;;;9.75;2.75;;;23.90;86.70;;;;;;4876667;29;20060;-66
2023/09/30 11:54:44;;;;;;;8.45;2.58;;;23.70;86.40;;;;;;4860398;29;20060;-66
2023/09/30 11:57:15;;;;;;;8.90;2.08;;;23.70;86.50;;;;;;4882521;29;20049;-66
2023/09/30 11:59:41;;;;;;;11.18;3.05;;;23.80;86.60;;;;;;4878524;29;20048;-66
2023/09/30 12:02:11;;;;;;;9.77;2.67;;;23.70;86.90;;;;;;4868340;29;20394;-66
2023/09/30 12:04:37;;;;;;;8.45;2.30;;;23.60;88.90;;;;;;4862522;29;20052;-66
2023/09/30 12:07:03;;;;;;;6.72;2.17;;;23.70;86.80;;;;;;4846612;29;20127;-66
2023/09/30 12:09:30;;;;;;;6.57;2.00;;;23.80;86.10;;;;;;4873560;29;20136;-67
2023/09/30 12:11:57;;;;;;;8.02;2.22;;;23.50;86.40;;;;;;4859413;29;20337;-66
2023/09/30 12:14:24;;;;;;;10.82;2.55;;;23.60;86.60;;;;;;4879570;29;20064;-65
2023/09/30 12:16:50;;;;;;;7.28;2.35;;;23.80;87.20;;;;;;4883004;29;20139;-65
2023/09/30 12:19:17;;;;;;;13.43;2.63;;;23.60;86.80;;;;;;4872183;29;20083;-66
2023/09/30 12:21:46;;;;;;;6.93;2.20;;;23.80;87.10;;;;;;4876771;29;20053;-66
2023/09/30 12:24:16;;;;;;;5.93;2.30;;;23.90;87.10;;;;;;4872733;29;20120;-66
2023/09/30 12:26:48;;;;;;;6.60;2.10;;;23.80;86.90;;;;;;4881510;29;20056;-66
2023/09/30 12:29:17;;;;;;;6.07;1.80;;;24.10;87.10;;;;;;4855693;29;20517;-66
2023/09/30 12:31:44;;;;;;;5.40;2.10;;;23.80;86.90;;;;;;4880034;29;20059;-66
2023/09/30 12:34:11;;;;;;;7.47;2.70;;;24.20;87.10;;;;;;4879218;29;20128;-66
2023/09/30 12:36:37;;;;;;;6.93;2.00;;;23.90;87.10;;;;;;4880939;29;20423;-66
2023/09/30 12:39:10;;;;;;;4.55;1.65;;;23.80;87.20;;;;;;4860666;29;20064;-66
2023/09/30 12:41:45;;;;;;;6.50;2.25;;;24.00;87.20;;;;;;4861003;29;20069;-66
2023/09/30 12:44:11;;;;;;;5.47;2.20;;;;;;;;;;4885209;29;20049;-66
2023/09/30 12:46:39;;;;;;;6.43;2.03;;;23.90;85.20;;;;;;4899685;29;20048;-66
2023/09/30 12:49:08;;;;;;;5.05;1.65;;;23.60;89.80;;;;;;4860304;29;20091;-68
2023/09/30 12:51:34;;;;;;;6.28;2.58;;;23.80;87.40;;;;;;4874732;29;20555;-66